createdAt,value
2023-05-05T00:01:08.741Z,68.20
2023-05-05T00:03:35.620Z,68.00
2023-05-05T00:06:03.054Z,67.92
2023-05-05T00:08:29.678Z,66.27
2023-05-05T00:10:57.349Z,66.22
2023-05-05T00:13:24.256Z,64.46
2023-05-05T00:15:53.333Z,65.50
2023-05-05T00:18:20.548Z,64.20
2023-05-05T00:20:47.735Z,63.79
2023-05-05T00:23:15.253Z,63.60
2023-05-05T00:25:41.956Z,63.32
2023-05-05T00:28:08.624Z,63.53
2023-05-05T00:30:36.206Z,63.05
2023-05-05T00:33:02.932Z,62.53
2023-05-05T00:35:29.525Z,61.84
2023-05-05T00:37:55.995Z,62.17
2023-05-05T00:40:22.568Z,62.44
2023-05-05T00:42:50.746Z,62.21
2023-05-05T00:45:19.265Z,62.48
2023-05-05T00:47:51.447Z,62.23
2023-05-05T00:50:30.225Z,62.48
2023-05-05T00:53:00.992Z,62.72
2023-05-05T00:55:29.184Z,61.97
2023-05-05T00:57:57.540Z,62.21
2023-05-05T01:00:24.585Z,61.97
2023-05-05T01:02:52.153Z,61.28
2023-05-05T01:05:21.475Z,61.70
2023-05-05T01:08:02.812Z,62.64
2023-05-05T01:10:40.631Z,62.01
2023-05-05T01:13:35.038Z,62.75
2023-05-05T01:16:11.742Z,62.48
2023-05-05T01:18:44.600Z,62.49
2023-05-05T01:21:15.845Z,63.44
2023-05-05T01:24:07.745Z,62.49
2023-05-05T01:27:14.964Z,63.39
2023-05-05T01:29:53.361Z,63.20
2023-05-05T01:32:26.979Z,62.87
2023-05-05T01:34:58.368Z,63.20
2023-05-05T01:37:32.244Z,63.71
2023-05-05T01:40:05.160Z,63.79
2023-05-05T01:42:33.842Z,63.85
2023-05-05T01:45:03.518Z,63.11
2023-05-05T01:47:31.813Z,63.13
2023-05-05T01:49:59.042Z,63.39
2023-05-05T01:52:27.835Z,64.11
2023-05-05T01:54:57.136Z,64.08
2023-05-05T01:57:26.449Z,63.81
2023-05-05T01:59:54.454Z,63.42
2023-05-05T02:02:22.267Z,64.10
2023-05-05T02:04:51.099Z,64.07
2023-05-05T02:07:18.633Z,64.01
2023-05-05T02:09:46.145Z,63.78
2023-05-05T02:12:13.164Z,64.04
2023-05-05T02:14:42.720Z,64.63
2023-05-05T02:17:10.005Z,64.28
2023-05-05T02:19:41.730Z,64.61
2023-05-05T02:22:08.449Z,63.88
2023-05-05T02:24:35.651Z,64.54
2023-05-05T02:27:05.098Z,65.31
2023-05-05T02:29:35.582Z,65.49
2023-05-05T02:32:06.792Z,66.20
2023-05-05T02:34:37.699Z,66.60
2023-05-05T02:37:07.635Z,66.80
2023-05-05T02:39:45.724Z,66.11
2023-05-05T02:42:16.464Z,66.29
2023-05-05T02:44:45.343Z,65.71
2023-05-05T02:47:11.800Z,67.41
2023-05-05T02:49:38.254Z,66.43
2023-05-05T02:52:04.845Z,67.25
2023-05-05T02:54:31.616Z,66.33
2023-05-05T02:56:59.369Z,67.35
2023-05-05T03:00:06.125Z,66.84
2023-05-05T03:02:38.839Z,66.55
2023-05-05T03:05:28.581Z,67.17
2023-05-05T03:08:03.425Z,67.03
2023-05-05T03:10:33.525Z,66.82
2023-05-05T03:13:02.198Z,66.96
2023-05-05T03:15:32.154Z,67.26
2023-05-05T03:18:00.329Z,67.30
2023-05-05T03:20:27.423Z,67.64
2023-05-05T03:22:54.810Z,69.61
2023-05-05T03:25:21.409Z,68.81
2023-05-05T03:27:47.738Z,68.83
2023-05-05T03:30:14.645Z,69.31
2023-05-05T03:32:41.064Z,69.91
2023-05-05T03:35:07.752Z,70.46
2023-05-05T03:37:34.309Z,69.98
2023-05-05T03:40:00.865Z,71.43
2023-05-05T03:42:27.344Z,72.02
2023-05-05T03:44:53.839Z,71.13
2023-05-05T03:47:20.624Z,72.61
2023-05-05T03:49:47.005Z,70.38
2023-05-05T03:52:15.083Z,69.87
2023-05-05T03:54:42.453Z,71.31
2023-05-05T03:57:08.898Z,70.61
2023-05-05T03:59:35.351Z,71.80
2023-05-05T04:02:01.831Z,73.80
2023-05-05T04:04:28.302Z,74.18
2023-05-05T04:06:54.758Z,73.48
2023-05-05T04:09:21.337Z,73.38
2023-05-05T04:11:47.741Z,72.55
2023-05-05T04:14:14.190Z,73.97
2023-05-05T04:16:40.711Z,74.16
2023-05-05T04:19:07.424Z,73.14
2023-05-05T04:21:34.868Z,73.86
2023-05-05T04:24:01.234Z,72.80
2023-05-05T04:26:27.790Z,73.75
2023-05-05T04:28:55.725Z,72.65
2023-05-05T04:31:22.264Z,73.69
2023-05-05T04:33:48.780Z,74.39
2023-05-05T04:36:15.225Z,72.75
2023-05-05T04:38:41.646Z,72.12
2023-05-05T04:41:08.239Z,72.61
2023-05-05T04:43:34.645Z,72.09
2023-05-05T04:46:01.216Z,71.99
2023-05-05T04:48:27.645Z,72.41
2023-05-05T04:50:54.039Z,71.74
2023-05-05T04:53:20.692Z,71.02
2023-05-05T04:55:47.139Z,71.76
2023-05-05T04:58:13.573Z,71.60
2023-05-05T05:00:39.993Z,71.55
2023-05-05T05:03:08.043Z,71.94
2023-05-05T05:05:34.524Z,71.33
2023-05-05T05:08:00.957Z,71.07
2023-05-05T05:10:28.437Z,72.01
2023-05-05T05:12:54.887Z,71.73
2023-05-05T05:15:21.406Z,71.51
2023-05-05T05:17:47.848Z,71.12
2023-05-05T05:20:14.398Z,70.59
2023-05-05T05:22:42.125Z,69.98
2023-05-05T05:25:08.816Z,70.75
2023-05-05T05:27:35.248Z,70.68
2023-05-05T05:30:02.195Z,70.73
2023-05-05T05:32:29.643Z,70.50
2023-05-05T05:34:56.059Z,70.79
2023-05-05T05:37:22.539Z,69.80
2023-05-05T05:39:52.346Z,69.06
2023-05-05T05:42:18.888Z,69.00
2023-05-05T05:44:45.331Z,69.54
2023-05-05T05:47:11.730Z,69.18
2023-05-05T05:49:38.070Z,67.90
2023-05-05T05:52:04.579Z,68.46
2023-05-05T05:54:32.617Z,68.59
2023-05-05T05:56:59.030Z,68.82
2023-05-05T05:59:26.759Z,68.28
2023-05-05T06:01:54.892Z,67.56
2023-05-05T06:04:21.363Z,67.69
2023-05-05T06:06:47.894Z,67.66
2023-05-05T06:09:14.449Z,66.34
2023-05-05T06:11:40.958Z,66.23
2023-05-05T06:14:07.595Z,66.24
2023-05-05T06:16:34.216Z,66.26
2023-05-05T06:19:00.806Z,65.30
2023-05-05T06:21:27.835Z,64.49
2023-05-05T06:23:54.247Z,64.56
2023-05-05T06:26:21.524Z,63.95
2023-05-05T06:28:47.963Z,64.06
2023-05-05T06:31:14.633Z,64.82
2023-05-05T06:33:41.145Z,63.30
2023-05-05T06:36:07.708Z,62.83
2023-05-05T06:38:34.269Z,62.41
2023-05-05T06:41:00.696Z,61.30
2023-05-05T06:43:29.097Z,59.45
2023-05-05T06:45:55.812Z,59.78
2023-05-05T06:48:22.235Z,58.53
2023-05-05T06:50:48.710Z,57.53
2023-05-05T06:53:15.154Z,57.46
2023-05-05T06:55:47.235Z,57.54
2023-05-05T06:58:13.891Z,56.66
2023-05-05T07:00:41.389Z,56.72
2023-05-05T07:03:08.212Z,56.76
2023-05-05T07:05:34.741Z,56.03
2023-05-05T07:08:01.435Z,55.73
2023-05-05T07:10:28.291Z,56.07
2023-05-05T07:12:55.157Z,58.15
2023-05-05T07:15:28.618Z,56.87
2023-05-05T07:17:56.707Z,56.98
2023-05-05T07:20:23.465Z,56.61
2023-05-05T07:22:49.905Z,56.77
2023-05-05T07:25:16.500Z,56.46
2023-05-05T07:27:43.340Z,56.63
2023-05-05T07:30:13.401Z,56.31
2023-05-05T07:32:42.107Z,56.12
2023-05-05T07:35:09.005Z,55.79
2023-05-05T07:37:38.477Z,55.32
2023-05-05T07:40:05.731Z,54.32
2023-05-05T07:42:32.458Z,52.68
2023-05-05T07:44:58.892Z,54.20
2023-05-05T07:47:25.544Z,53.21
2023-05-05T07:49:52.112Z,52.66
2023-05-05T07:52:19.435Z,52.68
2023-05-05T07:54:48.574Z,53.53
2023-05-05T07:57:15.803Z,53.65
2023-05-05T07:59:45.148Z,54.41
2023-05-05T08:02:12.700Z,53.21
2023-05-05T08:04:42.964Z,53.02
2023-05-05T08:07:10.123Z,50.61
2023-05-05T08:09:37.510Z,53.17
2023-05-05T08:12:04.492Z,51.58
2023-05-05T08:14:31.264Z,51.83
2023-05-05T08:16:57.761Z,51.61
2023-05-05T08:19:29.400Z,50.67
2023-05-05T08:21:56.343Z,51.26
2023-05-05T08:24:22.718Z,51.77
2023-05-05T08:26:49.319Z,51.55
2023-05-05T08:29:15.765Z,51.47
2023-05-05T08:31:42.612Z,52.01
2023-05-05T08:34:09.204Z,50.49
2023-05-05T08:36:35.800Z,51.25
2023-05-05T08:39:02.600Z,50.62
2023-05-05T08:41:29.052Z,50.45
2023-05-05T08:43:55.665Z,51.01
2023-05-05T08:46:24.319Z,49.69
2023-05-05T08:48:54.880Z,50.18
2023-05-05T08:51:22.499Z,52.25
2023-05-05T08:54:03.062Z,51.35
2023-05-05T08:56:34.603Z,49.78
2023-05-05T08:59:02.541Z,49.18
2023-05-05T09:01:31.847Z,49.52
2023-05-05T09:03:59.631Z,49.67
2023-05-05T09:06:27.327Z,49.38
2023-05-05T09:08:53.989Z,48.10
2023-05-05T09:11:21.436Z,48.13
2023-05-05T09:13:48.360Z,49.54
2023-05-05T09:16:14.733Z,47.86
2023-05-05T09:18:42.603Z,48.16
2023-05-05T09:21:22.766Z,48.53
2023-05-05T09:24:08.498Z,47.98
2023-05-05T09:26:37.371Z,47.30
2023-05-05T09:29:04.837Z,48.41
2023-05-05T09:31:32.601Z,46.40
2023-05-05T09:34:01.241Z,47.78
2023-05-05T09:36:47.952Z,46.54
2023-05-05T09:39:19.823Z,45.51
2023-05-05T09:41:47.079Z,47.61
2023-05-05T09:44:16.981Z,46.78
2023-05-05T09:46:52.069Z,45.43
2023-05-05T09:49:20.404Z,46.97
2023-05-05T09:51:47.702Z,46.32
2023-05-05T09:54:26.049Z,44.62
2023-05-05T09:56:52.808Z,44.82
2023-05-05T09:59:19.876Z,46.61
2023-05-05T10:01:47.455Z,44.67
2023-05-05T10:04:30.714Z,45.21
2023-05-05T10:06:58.807Z,45.19
2023-05-05T10:09:26.258Z,46.13
2023-05-05T10:11:53.918Z,47.69
2023-05-05T10:14:20.505Z,45.76
2023-05-05T10:16:52.373Z,45.50
2023-05-05T10:19:20.972Z,45.90
2023-05-05T10:21:50.485Z,45.50
2023-05-05T10:24:21.822Z,44.73
2023-05-05T10:26:49.781Z,46.34
2023-05-05T10:29:39.045Z,45.28
2023-05-05T10:32:40.583Z,45.21
2023-05-05T10:35:03.989Z,44.99
2023-05-05T10:37:30.922Z,46.17
2023-05-05T10:39:58.778Z,44.16
2023-05-05T10:42:25.635Z,44.25
2023-05-05T10:44:52.298Z,45.76
2023-05-05T10:47:21.858Z,44.23
2023-05-05T10:49:54.464Z,43.80
2023-05-05T10:52:28.390Z,43.94
2023-05-05T10:55:16.340Z,45.16
2023-05-05T10:57:44.972Z,45.09
2023-05-05T11:00:40.856Z,42.80
2023-05-05T11:03:27.999Z,42.90
2023-05-05T11:06:03.719Z,44.09
2023-05-05T11:08:44.136Z,43.40
2023-05-05T11:11:12.082Z,42.19
2023-05-05T11:13:40.083Z,42.97
2023-05-05T11:16:41.706Z,45.05
2023-05-05T11:19:43.854Z,43.49
2023-05-05T11:22:10.683Z,41.87
2023-05-05T11:24:37.989Z,44.88
2023-05-05T11:27:04.463Z,43.68
2023-05-05T11:30:06.844Z,43.24
2023-05-05T11:32:36.529Z,43.53
2023-05-05T11:35:03.875Z,43.31
2023-05-05T11:37:30.512Z,43.22
2023-05-05T11:40:10.167Z,43.17
2023-05-05T11:42:36.993Z,43.65
2023-05-05T11:45:23.086Z,41.68
2023-05-05T11:47:49.631Z,42.63
2023-05-05T11:50:18.302Z,43.10
2023-05-05T11:52:45.480Z,43.39
2023-05-05T11:57:38.648Z,41.95
2023-05-05T12:00:09.157Z,41.26
2023-05-05T12:02:36.083Z,41.19
2023-05-05T12:05:02.977Z,40.37
2023-05-05T12:07:31.685Z,40.09
2023-05-05T12:09:58.426Z,40.74
2023-05-05T12:12:38.014Z,41.32
2023-05-05T12:15:06.867Z,43.75
2023-05-05T12:17:42.406Z,41.49
2023-05-05T12:20:10.247Z,40.57
2023-05-05T12:22:37.346Z,41.39
2023-05-05T12:25:06.346Z,39.97
2023-05-05T12:27:32.807Z,42.20
2023-05-05T12:30:14.984Z,40.28
2023-05-05T12:32:42.189Z,40.37
2023-05-05T12:35:11.324Z,40.60
2023-05-05T12:37:40.597Z,40.52
2023-05-05T12:42:39.873Z,39.78
2023-05-05T12:45:15.776Z,40.73
2023-05-05T12:47:43.996Z,41.60
2023-05-05T12:50:10.815Z,42.74
2023-05-05T12:52:44.107Z,41.61
2023-05-05T12:55:11.369Z,42.03
2023-05-05T12:57:38.428Z,44.03
2023-05-05T13:00:18.003Z,43.60
2023-05-05T13:02:44.510Z,45.57
2023-05-05T13:05:11.146Z,44.12
2023-05-05T13:07:49.817Z,43.15
2023-05-05T13:10:16.436Z,44.91
2023-05-05T13:12:42.851Z,45.15
2023-05-05T13:15:10.187Z,46.00
2023-05-05T13:17:37.021Z,45.88
2023-05-05T13:20:03.757Z,44.71
2023-05-05T13:22:30.648Z,44.88
2023-05-05T13:24:57.091Z,45.37
2023-05-05T13:27:23.655Z,44.38
2023-05-05T13:29:50.068Z,46.14
2023-05-05T13:32:16.843Z,45.83
2023-05-05T13:34:44.066Z,46.11
2023-05-05T13:37:10.523Z,47.01
2023-05-05T13:39:37.016Z,46.82
2023-05-05T13:42:03.621Z,47.25
2023-05-05T13:44:30.074Z,47.06
2023-05-05T13:46:56.648Z,47.67
2023-05-05T13:49:23.669Z,47.67
2023-05-05T13:51:50.244Z,49.41
2023-05-05T13:54:16.764Z,48.86
2023-05-05T13:56:43.766Z,48.67
2023-05-05T13:59:10.211Z,49.66
2023-05-05T14:01:36.862Z,49.75
2023-05-05T14:04:05.375Z,49.15
2023-05-05T14:06:32.696Z,48.79
2023-05-05T14:08:59.278Z,51.18
2023-05-05T14:11:25.652Z,52.71
2023-05-05T14:13:52.804Z,53.19
2023-05-05T14:16:19.414Z,55.72
2023-05-05T14:18:45.783Z,57.45
2023-05-05T14:21:12.305Z,56.52
2023-05-05T14:23:38.875Z,56.29
2023-05-05T14:26:05.388Z,54.33
2023-05-05T14:28:31.862Z,54.48
2023-05-05T14:30:58.422Z,53.18
2023-05-05T14:33:24.962Z,53.67
2023-05-05T14:35:51.981Z,54.38
2023-05-05T14:38:18.474Z,55.18
2023-05-05T14:40:44.959Z,56.37
2023-05-05T14:43:11.313Z,55.93
2023-05-05T14:45:37.981Z,56.64
2023-05-05T14:48:04.612Z,56.35
2023-05-05T14:50:31.202Z,57.19
2023-05-05T14:52:57.636Z,58.16
2023-05-05T14:55:24.958Z,57.56
2023-05-05T14:57:51.939Z,57.65
2023-05-05T15:00:18.632Z,56.97
2023-05-05T15:02:45.211Z,57.99
2023-05-05T15:05:11.971Z,57.38
2023-05-05T15:07:40.025Z,55.34
2023-05-05T15:10:07.612Z,57.87
2023-05-05T15:12:34.349Z,57.59
2023-05-05T15:15:01.272Z,58.14
2023-05-05T15:17:27.782Z,58.04
2023-05-05T15:19:54.277Z,57.92
2023-05-05T15:22:20.792Z,57.62
2023-05-05T15:24:49.914Z,57.69
2023-05-05T15:27:17.933Z,58.10
2023-05-05T15:29:44.381Z,57.67
2023-05-05T15:32:11.412Z,57.04
2023-05-05T15:34:37.849Z,57.34
2023-05-05T15:37:04.410Z,58.16
2023-05-05T15:39:31.031Z,57.32
2023-05-05T15:41:57.594Z,57.35
2023-05-05T15:44:23.965Z,57.06
2023-05-05T15:46:50.671Z,56.57
2023-05-05T15:49:17.262Z,56.95
2023-05-05T15:51:43.662Z,57.97
2023-05-05T15:54:10.099Z,57.60
2023-05-05T15:56:36.769Z,56.44
2023-05-05T15:59:03.289Z,57.59
2023-05-05T16:01:30.075Z,56.36
2023-05-05T16:03:57.815Z,54.84
2023-05-05T16:06:24.217Z,53.71
2023-05-05T16:08:51.746Z,54.57
2023-05-05T16:11:19.956Z,54.46
2023-05-05T16:13:47.789Z,56.57
2023-05-05T16:16:14.268Z,56.66
2023-05-05T16:18:40.902Z,57.16
2023-05-05T16:21:07.352Z,57.16
2023-05-05T16:23:33.776Z,58.00
2023-05-05T16:26:00.186Z,58.94
2023-05-05T16:28:27.040Z,57.95
2023-05-05T16:30:53.583Z,57.07
2023-05-05T16:33:20.041Z,58.48
2023-05-05T16:35:46.494Z,58.23
2023-05-05T16:38:13.472Z,58.61
2023-05-05T16:40:40.609Z,57.19
2023-05-05T16:43:07.139Z,58.54
2023-05-05T16:45:33.577Z,60.44
2023-05-05T16:47:59.993Z,59.41
2023-05-05T16:50:26.847Z,59.60
2023-05-05T16:52:53.268Z,60.75
2023-05-05T16:55:19.773Z,60.19
2023-05-05T16:57:47.177Z,60.98
2023-05-05T17:00:14.429Z,60.33
2023-05-05T17:02:40.985Z,60.42
2023-05-05T17:05:08.119Z,59.97
2023-05-05T17:07:34.839Z,60.18
2023-05-05T17:10:01.635Z,59.93
2023-05-05T17:12:28.126Z,59.30
2023-05-05T17:14:54.874Z,59.70
2023-05-05T17:17:21.422Z,59.03
2023-05-05T17:19:48.091Z,59.84
2023-05-05T17:22:14.507Z,58.82
2023-05-05T17:24:41.047Z,59.67
2023-05-05T17:27:07.580Z,61.03
2023-05-05T17:29:39.295Z,60.57
2023-05-05T17:32:06.019Z,61.92
2023-05-05T17:34:32.539Z,61.00
2023-05-05T17:36:59.075Z,63.18
2023-05-05T17:39:25.533Z,61.60
2023-05-05T17:41:51.947Z,62.92
2023-05-05T17:44:18.345Z,62.35
2023-05-05T17:46:44.846Z,63.35
2023-05-05T17:49:11.369Z,64.57
2023-05-05T17:51:37.829Z,63.36
2023-05-05T17:54:04.714Z,62.89
2023-05-05T17:56:31.092Z,62.55
2023-05-05T17:58:57.802Z,63.18
2023-05-05T18:01:25.687Z,63.17
2023-05-05T18:03:52.749Z,63.90
2023-05-05T18:06:19.297Z,64.98
2023-05-05T18:08:46.576Z,65.52
2023-05-05T18:11:13.235Z,63.96
2023-05-05T18:13:39.666Z,65.08
2023-05-05T18:16:06.692Z,65.38
2023-05-05T18:18:33.396Z,65.64
2023-05-05T18:21:00.144Z,65.02
2023-05-05T18:23:26.662Z,65.41
2023-05-05T18:25:53.082Z,65.63
2023-05-05T18:28:20.265Z,65.68
2023-05-05T18:30:46.679Z,66.27
2023-05-05T18:33:13.016Z,67.51
2023-05-05T18:35:39.451Z,66.02
2023-05-05T18:38:05.942Z,66.55
2023-05-05T18:40:32.558Z,66.34
2023-05-05T18:42:58.962Z,67.51
2023-05-05T18:45:25.521Z,66.46
2023-05-05T18:47:51.981Z,67.76
2023-05-05T18:50:18.620Z,67.98
2023-05-05T18:52:45.121Z,68.65
2023-05-05T18:55:11.734Z,68.11
2023-05-05T18:57:38.486Z,69.46
2023-05-05T19:00:05.619Z,69.02
2023-05-05T19:02:32.072Z,69.15
2023-05-05T19:04:58.593Z,69.19
2023-05-05T19:07:34.848Z,69.82
2023-05-05T19:10:06.302Z,69.75
2023-05-05T19:12:32.894Z,70.04
2023-05-05T19:14:59.394Z,71.22
2023-05-05T19:17:25.977Z,71.67
2023-05-05T19:19:52.491Z,71.27
2023-05-05T19:22:20.516Z,72.08
2023-05-05T19:24:47.066Z,71.32
2023-05-05T19:27:16.393Z,72.12
2023-05-05T19:29:43.715Z,71.50
2023-05-05T19:32:10.539Z,71.59
2023-05-05T19:34:37.672Z,71.27
2023-05-05T19:37:04.389Z,72.40
2023-05-05T19:39:31.369Z,73.63
2023-05-05T19:41:57.815Z,74.24
2023-05-05T19:44:24.439Z,75.18
2023-05-05T19:46:52.723Z,75.29
2023-05-05T19:49:19.496Z,75.70
2023-05-05T19:51:49.757Z,75.91
2023-05-05T19:54:16.630Z,76.58
2023-05-05T19:56:43.192Z,77.59
2023-05-05T19:59:09.633Z,77.52
2023-05-05T20:01:36.868Z,78.28
2023-05-05T20:04:03.769Z,79.26
2023-05-05T20:06:30.524Z,79.56
2023-05-05T20:08:57.005Z,79.36
2023-05-05T20:11:25.753Z,79.17
2023-05-05T20:13:52.923Z,79.30
2023-05-05T20:16:20.119Z,78.88
2023-05-05T20:18:46.747Z,79.51
2023-05-05T20:21:13.676Z,80.72
2023-05-05T20:23:40.235Z,80.83
2023-05-05T20:26:07.585Z,81.58
2023-05-05T20:28:34.358Z,81.61
2023-05-05T20:31:01.011Z,82.42
2023-05-05T20:33:30.764Z,83.34
2023-05-05T20:35:57.307Z,84.23
2023-05-05T20:38:23.915Z,84.52
2023-05-05T20:40:51.033Z,84.44
2023-05-05T20:43:18.289Z,86.56
2023-05-05T20:45:44.965Z,86.91
2023-05-05T20:48:11.632Z,87.40
2023-05-05T20:50:41.678Z,87.58
2023-05-05T20:53:09.053Z,88.66
2023-05-05T20:55:35.645Z,88.85
2023-05-05T20:58:02.524Z,88.32
2023-05-05T21:00:29.063Z,89.51
2023-05-05T21:02:57.032Z,89.95
2023-05-05T21:05:24.031Z,90.22
2023-05-05T21:07:50.996Z,91.02
2023-05-05T21:10:17.578Z,90.24
2023-05-05T21:12:44.071Z,90.29
2023-05-05T21:15:11.305Z,90.74
2023-05-05T21:17:38.042Z,89.59
2023-05-05T21:20:04.990Z,88.54
2023-05-05T21:22:31.429Z,89.16
2023-05-05T21:25:16.356Z,90.73
2023-05-05T21:27:42.934Z,88.23
2023-05-05T21:30:11.157Z,88.14
2023-05-05T21:32:41.630Z,88.03
2023-05-05T21:35:09.047Z,90.63
2023-05-05T21:37:38.116Z,89.77
2023-05-05T21:40:06.132Z,90.37
2023-05-05T21:42:32.562Z,89.43
2023-05-05T21:44:58.938Z,91.15
2023-05-05T21:47:25.514Z,90.44
2023-05-05T21:49:52.047Z,91.04
2023-05-05T21:52:18.520Z,90.33
2023-05-05T21:54:45.118Z,90.03
2023-05-05T21:57:11.580Z,91.08
2023-05-05T21:59:38.093Z,89.86
2023-05-05T22:02:04.544Z,90.33
2023-05-05T22:04:31.283Z,90.77
2023-05-05T22:06:58.240Z,91.34
2023-05-05T22:09:24.976Z,92.10
2023-05-05T22:11:51.728Z,91.37
2023-05-05T22:14:18.196Z,91.67
2023-05-05T22:16:44.704Z,93.77
2023-05-05T22:19:11.313Z,92.46
2023-05-05T22:21:37.707Z,91.88
2023-05-05T22:24:04.854Z,92.15
2023-05-05T22:26:31.291Z,90.76
2023-05-05T22:28:57.840Z,91.82
2023-05-05T22:31:24.412Z,91.97
2023-05-05T22:33:50.869Z,92.86
2023-05-05T22:36:17.348Z,91.08
2023-05-05T22:38:43.779Z,91.71
2023-05-05T22:41:10.663Z,91.53
2023-05-05T22:43:37.107Z,92.81
2023-05-05T22:46:03.603Z,92.71
2023-05-05T22:48:30.065Z,92.80
2023-05-05T22:50:57.030Z,92.66
2023-05-05T22:53:23.472Z,90.70
2023-05-05T22:55:51.675Z,93.27
2023-05-05T22:58:18.260Z,92.41
2023-05-05T23:00:44.711Z,91.22
2023-05-05T23:03:11.544Z,94.43
2023-05-05T23:05:38.080Z,94.08
2023-05-05T23:08:04.836Z,93.56
2023-05-05T23:10:31.470Z,93.36
2023-05-05T23:12:57.982Z,92.09
2023-05-05T23:15:25.134Z,91.62
2023-05-05T23:17:51.683Z,91.51
2023-05-05T23:20:18.182Z,91.33
2023-05-05T23:22:44.702Z,91.74
2023-05-05T23:25:11.420Z,92.60
2023-05-05T23:27:40.072Z,91.78
2023-05-05T23:30:10.628Z,92.31
2023-05-05T23:32:37.329Z,93.58
2023-05-05T23:35:04.058Z,92.67
2023-05-05T23:37:30.413Z,92.82
2023-05-05T23:39:57.035Z,93.61
2023-05-05T23:42:24.177Z,94.00
2023-05-05T23:44:50.635Z,94.48
2023-05-05T23:47:17.127Z,94.37
2023-05-05T23:49:43.612Z,93.81
2023-05-05T23:52:11.036Z,93.79
2023-05-05T23:54:37.429Z,93.88
2023-05-05T23:57:03.960Z,94.23
2023-05-05T23:59:30.676Z,94.17
